Time;durP1;ratioP1;P1;durP2;ratioP2;P2;SDS_P1;SDS_P2;PMS_P1;PMS_P2;Temp;Humidity;BMP_temperature;BMP_pressure;BME280_temperature;BME280_humidity;BME280_pressure;Samples;Min_cycle;Max_cycle;Signal;HPM_P1;HPM_P2
2022/10/10 00:01:30;;;;;;;15.28;8.18;;;;;;;12.64;91.15;150828.66;1778003;80;21531;-69
2022/10/10 00:03:59;;;;;;;16.40;7.60;;;;;;;12.60;91.43;150820.88;1778292;80;21100;-69
2022/10/10 00:06:26;;;;;;;18.48;8.73;;;;;;;12.56;91.64;150810.48;1777985;80;21101;-68
2022/10/10 00:08:53;;;;;;;12.93;7.90;;;;;;;12.53;91.81;150802.69;1779322;80;21937;-69
2022/10/10 00:11:21;;;;;;;16.48;8.23;;;;;;;12.49;91.99;150792.31;1779421;80;21043;-68
2022/10/10 00:13:50;;;;;;;16.93;8.85;;;;;;;12.45;92.16;150781.88;1779732;79;20911;-69
2022/10/10 00:16:17;;;;;;;19.10;8.45;;;;;;;12.40;92.31;150770.20;1779881;79;21081;-69
2022/10/10 00:18:44;;;;;;;15.23;8.75;;;;;;;12.36;92.50;150758.50;1779644;80;21035;-68
2022/10/10 00:21:13;;;;;;;14.58;8.73;;;;;;;12.31;92.57;150748.11;1779771;79;21022;-69
2022/10/10 00:23:40;;;;;;;16.25;8.45;;;;;;;12.27;92.63;150737.73;1779815;79;21069;-69
2022/10/10 00:26:08;;;;;;;15.72;7.85;;;;;;;12.22;92.82;150724.70;1779428;80;21101;-69
2022/10/10 00:28:39;;;;;;;19.05;8.73;;;;;;;12.17;92.97;150713.03;1779532;79;21015;-69
2022/10/10 00:31:07;;;;;;;17.67;8.33;;;;;;;12.12;93.04;150698.73;1782996;79;21026;-70
2022/10/10 00:33:36;;;;;;;18.73;8.30;;;;;;;12.09;93.10;150692.22;1748521;82;20977;-69
2022/10/10 00:36:05;;;;;;;21.97;8.55;;;;;;;12.04;93.14;150680.53;1748607;82;21081;-68
2022/10/10 00:38:31;;;;;;;14.87;7.97;;;;;;;12.00;93.17;150670.09;1748747;82;21087;-68
2022/10/10 00:40:58;;;;;;;13.90;8.15;;;;;;;11.97;93.14;150662.30;1748435;82;21091;-69
2022/10/10 00:43:25;;;;;;;21.85;8.25;;;;;;;11.94;93.05;150653.25;1748481;82;21572;-69
2022/10/10 00:45:52;;;;;;;17.42;7.83;;;;;;;11.90;93.07;150645.41;1748393;82;21293;-69
2022/10/10 00:48:38;;;;;;;18.27;8.30;;;;;;;11.88;93.03;150638.94;1748182;81;21531;-62
2022/10/10 00:51:15;;;;;;;17.87;7.78;;;;;;;11.85;92.99;150631.16;1747426;82;21471;-62
2022/10/10 00:53:46;;;;;;;18.20;7.45;;;;;;;11.82;92.86;150624.64;1748331;82;20989;-63
2022/10/10 00:56:14;;;;;;;19.42;7.00;;;;;;;11.78;92.72;150612.94;1749212;82;21023;-62
2022/10/10 00:58:43;;;;;;;13.70;7.22;;;;;;;11.77;92.60;150610.34;1748431;81;21206;-62
2022/10/10 01:01:10;;;;;;;15.43;7.12;;;;;;;11.74;92.50;150603.87;1748761;82;21079;-62
2022/10/10 01:03:39;;;;;;;18.57;7.12;;;;;;;11.71;92.51;150596.05;1748544;82;21024;-62
2022/10/10 01:06:06;;;;;;;11.85;6.53;;;;;;;11.68;92.47;150589.58;1748658;80;21020;-62
2022/10/10 01:08:34;;;;;;;15.18;6.87;;;;;;;11.63;92.42;150576.61;1779805;80;21085;-62
2022/10/10 01:11:30;;;;;;;13.13;6.50;;;;;;;11.60;92.35;150568.78;1788064;78;21026;-61
2022/10/10 01:14:16;;;;;;;16.60;6.53;;;;;;;11.58;92.28;150563.58;1787686;79;21190;-62
2022/10/10 01:17:12;;;;;;;11.90;6.80;;;;;;;11.55;92.32;150557.12;1787585;78;21539;-62
2022/10/10 01:20:05;;;;;;;17.82;6.45;;;;;;;11.52;92.32;150548.02;1787542;79;21007;-62
2022/10/10 01:23:02;;;;;;;12.80;6.83;;;;;;;11.47;92.42;150536.31;1786372;78;21049;-61
2022/10/10 01:25:58;;;;;;;11.63;6.10;;;;;;;11.42;92.39;150524.66;1787594;80;21226;-61
2022/10/10 01:29:05;;;;;;;16.80;7.05;;;;;;;11.37;92.38;150510.36;1787421;79;21058;-62
2022/10/10 01:31:35;;;;;;;9.40;5.60;;;;;;;11.30;92.31;150493.47;1787362;79;21452;-62
2022/10/10 01:34:48;;;;;;;17.37;6.55;;;;;;;11.24;92.38;150477.91;1786719;80;20990;-62
2022/10/10 01:37:29;;;;;;;13.78;6.37;;;;;;;11.18;92.42;150464.94;1786155;80;20966;-62
2022/10/10 01:40:23;;;;;;;11.78;7.05;;;;;;;11.14;92.65;150453.23;1743728;80;21116;-62
2022/10/10 01:42:53;;;;;;;11.97;6.25;;;;;;;11.10;92.73;150444.14;1786070;80;21089;-63
2022/10/10 01:45:21;;;;;;;11.43;5.50;;;;;;;11.06;92.87;150433.77;1786150;80;21061;-63
2022/10/10 01:47:48;;;;;;;12.37;5.78;;;;;;;11.01;92.85;150420.78;1786149;80;20995;-63
2022/10/10 01:50:18;;;;;;;14.95;6.53;;;;;;;11.00;92.87;150418.20;1786529;80;21606;-61
2022/10/10 01:53:09;;;;;;;14.28;6.87;;;;;;;10.96;92.83;150407.81;1786163;80;21499;-62
2022/10/10 01:55:50;;;;;;;13.03;6.05;;;;;;;10.93;92.76;150401.31;1785979;80;21155;-63
2022/10/10 01:58:52;;;;;;;15.45;5.95;;;;;;;10.89;92.75;150392.22;1786055;80;21037;-63
2022/10/10 02:01:32;;;;;;;11.97;6.05;;;;;;;10.87;92.76;150385.75;1786255;80;21013;-63
2022/10/10 02:04:16;;;;;;;12.90;5.35;;;;;;;10.82;92.89;150374.06;1786028;80;21626;-62
2022/10/10 02:06:49;;;;;;;12.85;6.37;;;;;;;10.78;92.90;150363.69;1786313;80;21107;-62
2022/10/10 02:09:27;;;;;;;16.73;6.22;;;;;;;10.73;93.06;150350.72;1787981;79;20954;-63
2022/10/10 02:11:54;;;;;;;11.18;6.00;;;;;;;10.69;93.20;150341.61;1787968;80;21026;-63
2022/10/10 02:14:24;;;;;;;10.68;5.78;;;;;;;10.66;93.30;150332.52;1787984;78;21320;-63
2022/10/10 02:16:53;;;;;;;12.88;5.80;;;;;;;10.64;93.38;150327.33;1787271;79;21077;-63
2022/10/10 02:19:21;;;;;;;12.18;5.67;;;;;;;10.62;93.32;150322.14;1787923;79;22396;-62
2022/10/10 02:21:50;;;;;;;12.55;5.72;;;;;;;10.58;93.33;150314.36;1787990;79;21512;-62
2022/10/10 02:24:19;;;;;;;13.62;6.05;;;;;;;10.55;93.44;150306.58;1788113;78;20982;-62
2022/10/10 02:26:49;;;;;;;14.63;5.20;;;;;;;10.53;93.51;150301.39;1787793;78;20978;-62
2022/10/10 02:29:19;;;;;;;19.32;5.42;;;;;;;10.50;93.59;150293.61;1787815;79;21365;-61
2022/10/10 02:32:12;;;;;;;13.95;5.22;;;;;;;10.48;93.58;150287.11;1766742;80;21806;-61
2022/10/10 02:34:44;;;;;;;11.63;4.92;;;;;;;10.44;93.73;150278.02;1785185;79;21015;-70
2022/10/10 02:37:12;;;;;;;9.70;5.42;;;;;;;10.39;93.87;150265.00;1784986;79;21109;-63
2022/10/10 02:39:43;;;;;;;10.93;4.80;;;;;;;10.36;94.02;150257.22;1785181;79;21028;-62
2022/10/10 02:42:11;;;;;;;11.12;5.17;;;;;;;10.35;94.12;150254.63;1784960;79;21088;-62
2022/10/10 02:44:38;;;;;;;10.50;5.15;;;;;;;10.31;94.10;150246.84;1784599;80;21271;-62
2022/10/10 02:47:05;;;;;;;11.57;4.92;;;;;;;10.30;94.14;150242.94;1765113;80;20996;-62
2022/10/10 02:49:33;;;;;;;11.28;4.53;;;;;;;10.26;94.28;150233.84;1784316;80;21039;-62
2022/10/10 02:52:00;;;;;;;10.43;5.30;;;;;;;10.24;94.41;150227.38;1785907;80;20957;-62
2022/10/10 02:54:27;;;;;;;9.45;4.75;;;;;;;10.22;94.46;150222.19;1785329;79;21149;-63
2022/10/10 02:56:54;;;;;;;13.70;4.78;;;;;;;10.20;94.46;150218.28;1785359;80;21130;-62
2022/10/10 02:59:21;;;;;;;12.20;5.10;;;;;;;10.16;94.56;150207.91;1785323;80;21083;-62
2022/10/10 03:01:48;;;;;;;17.70;5.55;;;;;;;10.14;94.62;150202.73;1785337;80;21087;-62
2022/10/10 03:04:15;;;;;;;18.55;5.62;;;;;;;10.10;94.72;150193.63;1785295;79;21035;-63
2022/10/10 03:06:42;;;;;;;12.00;5.08;;;;;;;10.07;94.86;150184.59;1785121;80;21045;-62
2022/10/10 03:09:09;;;;;;;10.15;5.10;;;;;;;10.03;94.78;150176.75;1785101;80;21803;-63
2022/10/10 03:11:37;;;;;;;9.38;4.75;;;;;;;9.99;94.74;150165.12;1785050;79;21014;-62
2022/10/10 03:14:03;;;;;;;12.60;4.75;;;;;;;9.94;94.78;150153.44;1785286;79;21508;-61
2022/10/10 03:16:30;;;;;;;10.13;4.95;;;;;;;9.91;94.87;150145.66;1784815;79;21078;-63
2022/10/10 03:18:58;;;;;;;11.28;4.87;;;;;;;9.85;95.02;150130.11;1785069;80;21606;-60
2022/10/10 03:21:26;;;;;;;11.80;5.05;;;;;;;9.81;95.21;150119.69;1784894;80;21231;-61
2022/10/10 03:23:52;;;;;;;12.37;5.22;;;;;;;9.75;95.41;150106.73;1784843;79;21456;-62
2022/10/10 03:26:20;;;;;;;9.88;4.85;;;;;;;9.70;95.64;150092.45;1784641;79;21069;-62
2022/10/10 03:28:47;;;;;;;13.05;5.55;;;;;;;9.66;95.80;150083.41;1784743;79;20974;-62
2022/10/10 03:31:15;;;;;;;18.20;4.70;;;;;;;9.62;95.97;150071.72;1784332;79;21031;-62
2022/10/10 03:33:44;;;;;;;9.63;4.50;;;;;;;9.57;96.22;150061.36;1766390;81;22825;-62
2022/10/10 03:36:10;;;;;;;9.95;4.35;;;;;;;9.54;96.40;150052.27;1766591;80;21023;-62
2022/10/10 03:38:39;;;;;;;10.13;4.08;;;;;;;9.51;96.58;150044.48;1766941;81;21007;-62
2022/10/10 03:41:06;;;;;;;10.32;4.42;;;;;;;9.46;96.72;150032.81;1766739;80;21086;-62
2022/10/10 03:43:33;;;;;;;12.80;4.47;;;;;;;9.42;96.85;150023.77;1766930;81;21029;-62
2022/10/10 03:45:59;;;;;;;9.53;4.53;;;;;;;9.38;96.97;150013.34;1766402;81;21201;-63
2022/10/10 03:48:26;;;;;;;9.55;4.15;;;;;;;9.33;97.11;150000.41;1766337;81;21101;-62
2022/10/10 03:50:53;;;;;;;12.28;4.62;;;;;;;9.30;97.33;149992.63;1766188;81;21071;-62
2022/10/10 03:53:21;;;;;;;9.28;3.70;;;;;;;9.26;97.56;149982.27;1766197;81;21103;-62
2022/10/10 03:55:48;;;;;;;9.35;3.72;;;;;;;9.22;97.81;149971.91;1766234;81;21047;-63
2022/10/10 03:58:15;;;;;;;8.78;4.35;;;;;;;9.21;98.01;149969.31;1766507;81;21087;-62
2022/10/10 04:00:42;;;;;;;9.90;4.37;;;;;;;9.18;98.21;149962.81;1766657;80;21501;-62
2022/10/10 04:03:09;;;;;;;10.63;4.17;;;;;;;9.16;98.37;149958.91;1766997;81;20995;-61
2022/10/10 04:05:36;;;;;;;10.88;3.92;;;;;;;9.15;98.43;149956.31;1766719;81;21429;-62
2022/10/10 04:08:05;;;;;;;9.55;4.33;;;;;;;9.13;98.52;149949.86;1767558;81;21033;-62
2022/10/10 04:10:32;;;;;;;12.55;3.85;;;;;;;9.12;98.60;149947.27;1767177;81;21136;-63
2022/10/10 04:13:01;;;;;;;11.53;4.40;;;;;;;9.10;98.65;149943.36;1766896;81;21063;-63
2022/10/10 04:15:29;;;;;;;14.93;4.90;;;;;;;9.10;98.70;149942.09;1767115;81;21099;-62
2022/10/10 04:17:56;;;;;;;11.53;4.03;;;;;;;9.08;98.83;149938.19;1767101;81;21098;-62
2022/10/10 04:20:23;;;;;;;12.88;4.45;;;;;;;9.08;98.95;149938.19;1767063;81;21018;-62
2022/10/10 04:22:50;;;;;;;12.98;4.92;;;;;;;9.09;99.08;149940.77;1767535;81;21773;-61
2022/10/10 04:25:17;;;;;;;12.45;4.20;;;;;;;9.12;99.14;149948.53;1766997;81;21090;-62
2022/10/10 04:27:44;;;;;;;7.65;3.92;;;;;;;9.15;99.15;149956.31;1743685;81;21049;-63
2022/10/10 04:30:12;;;;;;;13.58;4.10;;;;;;;9.21;99.07;149970.58;1766605;81;21118;-63
2022/10/10 04:32:39;;;;;;;10.23;3.35;;;;;;;9.33;98.94;150000.41;1757773;79;21580;-63
2022/10/10 04:35:07;;;;;;;9.98;3.70;;;;;;;9.45;98.56;150030.22;1751543;80;21873;-63
2022/10/10 04:37:34;;;;;;;10.45;3.85;;;;;;;9.60;97.73;150067.81;1751322;81;21090;-63
2022/10/10 04:40:01;;;;;;;10.93;3.77;;;;;;;9.78;96.96;150111.91;1751181;81;21692;-63
2022/10/10 04:42:28;;;;;;;10.70;3.62;;;;;;;9.95;95.89;150156.03;1751064;81;21047;-62
2022/10/10 04:44:55;;;;;;;14.40;4.55;;;;;;;10.02;94.80;150174.17;1751726;80;21530;-62
2022/10/10 04:47:22;;;;;;;8.53;3.72;;;;;;;10.02;94.00;150174.17;1751742;81;21111;-63
2022/10/10 04:49:49;;;;;;;12.00;4.03;;;;;;;9.99;93.70;150166.39;1751646;80;21051;-62
2022/10/10 04:52:16;;;;;;;10.60;3.50;;;;;;;9.97;93.42;150161.20;1751672;81;21467;-62
2022/10/10 04:54:42;;;;;;;7.83;3.72;;;;;;;9.96;93.41;150158.61;1751616;81;21032;-62
2022/10/10 04:57:09;;;;;;;7.85;3.67;;;;;;;9.98;93.40;150163.80;1751818;81;21027;-62
2022/10/10 04:59:36;;;;;;;9.25;3.95;;;;;;;10.02;93.16;150174.17;1751709;81;21792;-63
2022/10/10 05:02:03;;;;;;;15.45;3.47;;;;;;;10.07;92.76;150185.86;1751628;81;20963;-63
2022/10/10 05:04:30;;;;;;;8.90;3.98;;;;;;;10.12;92.45;150197.55;1751652;80;21044;-63
2022/10/10 05:06:56;;;;;;;13.08;3.90;;;;;;;10.17;92.15;150211.83;1754754;80;21099;-62
2022/10/10 05:09:24;;;;;;;9.60;3.90;;;;;;;10.23;91.72;150224.78;1777804;80;21085;-62
2022/10/10 05:11:51;;;;;;;9.13;4.00;;;;;;;10.28;91.46;150239.08;1777937;80;21277;-63
2022/10/10 05:14:19;;;;;;;8.55;3.40;;;;;;;10.34;91.05;150252.03;1777706;80;21045;-62
2022/10/10 05:16:47;;;;;;;10.85;4.05;;;;;;;10.40;90.71;150267.59;1777798;80;21049;-69
2022/10/10 05:19:14;;;;;;;9.88;3.72;;;;;;;10.46;90.51;150284.52;1777918;80;21129;-69
2022/10/10 05:21:42;;;;;;;10.82;3.75;;;;;;;10.54;90.11;150303.98;1777650;80;21206;-69
2022/10/10 05:24:09;;;;;;;8.13;3.37;;;;;;;10.62;89.62;150322.14;1777655;80;21123;-63
2022/10/10 05:26:36;;;;;;;9.65;3.60;;;;;;;10.69;89.23;150340.30;1777759;80;21061;-63
2022/10/10 05:29:04;;;;;;;6.58;3.33;;;;;;;10.74;88.79;150353.31;1777711;80;21066;-62
2022/10/10 05:31:33;;;;;;;5.22;3.22;;;;;;;10.81;88.25;150370.14;1774075;80;21290;-63
2022/10/10 05:34:00;;;;;;;6.92;3.58;;;;;;;10.86;87.86;150384.44;1751603;81;21031;-62
2022/10/10 05:36:27;;;;;;;7.40;3.55;;;;;;;10.92;87.41;150397.41;1751380;81;22170;-62
2022/10/10 05:38:54;;;;;;;6.35;3.02;;;;;;;10.96;87.01;150407.81;1751305;81;20996;-62
2022/10/10 05:41:21;;;;;;;9.43;3.25;;;;;;;10.98;86.69;150413.00;1750719;81;21432;-68
2022/10/10 05:43:48;;;;;;;6.00;3.15;;;;;;;11.02;86.35;150423.37;1750905;81;20991;-67
2022/10/10 05:46:15;;;;;;;7.95;3.05;;;;;;;11.09;86.09;150440.28;1750630;81;21039;-68
2022/10/10 05:48:42;;;;;;;8.10;3.40;;;;;;;11.22;85.79;150472.72;1750648;81;21299;-68
2022/10/10 05:51:08;;;;;;;8.50;3.20;;;;;;;11.41;85.12;150520.75;1751427;80;21043;-67
2022/10/10 05:53:36;;;;;;;20.10;3.47;;;;;;;11.52;84.13;150548.02;1751444;81;21047;-68
2022/10/10 05:56:03;;;;;;;19.32;3.12;;;;;;;11.54;83.51;150553.20;1768562;79;21451;-68
2022/10/10 05:58:30;;;;;;;7.75;2.83;;;;;;;11.55;83.39;150555.80;1765404;81;21059;-74
2022/10/10 06:01:03;;;;;;;7.30;2.58;;;;;;;11.53;83.19;150550.61;1768255;80;21783;-74
2022/10/10 06:03:30;;;;;;;6.08;2.90;;;;;;;11.50;83.03;150544.14;1768644;79;21116;-75
2022/10/10 06:05:57;;;;;;;8.93;3.10;;;;;;;11.52;83.16;150548.02;1764992;81;21023;-75
2022/10/10 06:08:24;;;;;;;7.70;2.62;;;;;;;11.54;82.97;150553.20;1765152;81;21111;-75
2022/10/10 06:10:51;;;;;;;9.35;2.80;;;;;;;11.58;82.78;150563.58;1767608;81;21002;-68
2022/10/10 06:13:20;;;;;;;14.43;3.20;;;;;;;11.62;82.79;150574.02;1768440;80;21573;-68
2022/10/10 06:15:50;;;;;;;9.03;2.92;;;;;;;11.68;82.62;150589.58;1764769;81;20961;-68
2022/10/10 06:18:20;;;;;;;15.03;3.17;;;;;;;11.74;82.22;150605.16;1769172;81;21459;-68
2022/10/10 06:20:47;;;;;;;8.15;2.77;;;;;;;11.82;82.22;150623.31;1766568;80;21056;-68
2022/10/10 06:23:13;;;;;;;11.85;2.40;;;;;;;11.91;81.80;150646.73;1769228;80;21120;-68
2022/10/10 06:25:41;;;;;;;5.72;2.35;;;;;;;11.99;81.67;150667.50;1771467;80;21764;-68
2022/10/10 06:28:09;;;;;;;17.35;3.22;;;;;;;12.07;81.29;150685.77;1769939;81;37486;-68
2022/10/10 06:30:43;;;;;;;9.55;2.55;;;;;;;12.15;80.83;150707.80;1764445;79;21159;-75
2022/10/10 06:33:10;;;;;;;14.13;3.30;;;;;;;12.25;80.25;150731.22;1764068;80;21043;-75
2022/10/10 06:35:41;;;;;;;14.15;2.80;;;;;;;12.32;79.73;150749.39;1760384;79;21048;-74
2022/10/10 06:38:09;;;;;;;4.30;2.30;;;;;;;12.44;78.98;150779.27;1766528;79;21859;-75
2022/10/10 06:40:35;;;;;;;6.58;2.00;;;;;;;12.53;78.68;150802.69;1767205;79;20996;-75
2022/10/10 06:43:03;;;;;;;5.40;2.17;;;;;;;12.63;78.33;150827.39;1769804;79;21589;-74
2022/10/10 06:45:30;;;;;;;7.92;2.12;;;;;;;12.71;77.22;150846.84;1776839;79;21126;-67
2022/10/10 06:47:57;;;;;;;10.95;2.60;;;;;;;12.76;76.61;150859.88;1771999;79;21094;-74
2022/10/10 06:50:24;;;;;;;7.08;2.30;;;;;;;12.81;76.34;150872.86;1762694;79;21216;-74
2022/10/10 06:52:50;;;;;;;4.28;2.12;;;;;;;12.85;75.90;150883.25;1780474;79;21454;-74
2022/10/10 06:55:17;;;;;;;3.37;1.70;;;;;;;12.89;75.56;150893.64;1769167;79;21049;-74
2022/10/10 06:57:44;;;;;;;5.60;1.72;;;;;;;12.90;75.04;150896.23;1768096;79;21053;-74
2022/10/10 07:00:13;;;;;;;4.15;2.00;;;;;;;12.89;75.11;150893.64;1765674;79;21990;-75
2022/10/10 07:02:41;;;;;;;9.63;2.60;;;;;;;12.92;75.31;150898.83;1765054;79;21147;-75
2022/10/10 07:05:12;;;;;;;6.58;1.72;;;;;;;12.97;75.29;150913.14;1764662;79;21017;-74
2022/10/10 07:07:40;;;;;;;7.95;1.60;;;;;;;13.02;73.83;150924.86;1767593;80;21088;-74
2022/10/10 07:10:10;;;;;;;5.15;1.67;;;;;;;13.06;73.26;150935.25;1762462;79;20988;-74
2022/10/10 07:12:40;;;;;;;3.65;1.45;;;;;;;13.10;72.42;150945.64;1773581;78;21019;-74
2022/10/10 07:15:08;;;;;;;5.53;1.65;;;;;;;13.15;72.20;150957.34;1763733;81;21218;-75
2022/10/10 07:17:35;;;;;;;9.68;1.60;;;;;;;13.23;72.10;150976.86;1769127;81;21073;-74
2022/10/10 07:20:03;;;;;;;5.92;1.50;;;;;;;13.33;70.89;151002.84;1774990;80;21105;-75
2022/10/10 07:22:31;;;;;;;6.20;1.30;;;;;;;13.35;70.39;151008.03;1775696;79;20994;-74
2022/10/10 07:24:58;;;;;;;5.42;1.40;;;;;;;13.34;70.50;151005.44;1776174;80;21066;-74
2022/10/10 07:27:24;;;;;;;2.92;1.30;;;;;;;13.41;70.29;151023.69;1772706;79;21136;-74
2022/10/10 07:29:51;;;;;;;11.00;1.70;;;;;;;13.46;69.61;151036.72;1765628;79;20978;-74
2022/10/10 07:32:18;;;;;;;4.97;1.30;;;;;;;13.53;69.33;151052.31;1771535;80;21029;-72
2022/10/10 07:34:45;;;;;;;6.05;1.55;;;;;;;13.57;69.31;151064.03;1777154;80;21016;-72
2022/10/10 07:37:12;;;;;;;3.22;1.55;;;;;;;13.64;68.69;151080.94;1779032;79;21021;-72
2022/10/10 07:39:39;;;;;;;6.25;1.30;;;;;;;13.70;68.57;151096.53;1774956;80;21203;-72
2022/10/10 07:42:06;;;;;;;11.48;1.25;;;;;;;13.78;68.04;151114.72;1775315;80;21002;-72
2022/10/10 07:44:33;;;;;;;1.32;0.98;;;;;;;13.83;68.06;151129.05;1769232;79;21077;-72
2022/10/10 07:47:00;;;;;;;2.45;1.10;;;;;;;13.90;66.50;151147.25;1777770;80;21506;-72
2022/10/10 07:49:27;;;;;;;6.35;1.35;;;;;;;13.93;66.57;151153.77;1774924;79;21064;-72
2022/10/10 07:51:54;;;;;;;3.10;1.22;;;;;;;14.01;66.49;151174.56;1774738;80;21229;-72
2022/10/10 07:54:22;;;;;;;2.22;0.95;;;;;;;14.14;66.36;151205.81;1772197;80;20974;-71
2022/10/10 07:56:48;;;;;;;5.33;1.47;;;;;;;14.24;65.91;151231.81;1776409;79;21103;-72
2022/10/10 07:59:15;;;;;;;6.62;1.30;;;;;;;14.34;65.14;151256.53;1775628;79;21055;-72
2022/10/10 08:01:42;;;;;;;3.00;1.07;;;;;;;14.42;64.46;151277.37;1778055;80;21101;-73
2022/10/10 08:04:09;;;;;;;8.48;1.10;;;;;;;14.53;64.29;151304.70;1779063;79;22113;-72
2022/10/10 08:06:36;;;;;;;4.47;1.17;;;;;;;14.63;62.92;151328.11;1777696;79;21043;-72
2022/10/10 08:09:04;;;;;;;3.35;1.10;;;;;;;14.62;62.43;151326.83;1778953;79;21037;-73
2022/10/10 08:11:31;;;;;;;2.47;1.02;;;;;;;14.58;62.35;151317.70;1773154;79;21006;-73
2022/10/10 08:13:58;;;;;;;7.17;1.22;;;;;;;14.63;62.41;151328.11;1773754;79;21602;-65
2022/10/10 08:16:25;;;;;;;1.82;0.85;;;;;;;14.74;61.47;151358.09;1778552;80;21229;-65
2022/10/10 08:18:52;;;;;;;1.50;0.80;;;;;;;14.83;60.53;151378.94;1779192;79;21015;-66
2022/10/10 08:21:20;;;;;;;5.05;1.00;;;;;;;14.84;59.82;151382.81;1773066;79;21744;-67
2022/10/10 08:23:46;;;;;;;2.25;0.78;;;;;;;14.85;59.73;151385.42;1775680;79;21094;-68
2022/10/10 08:26:15;;;;;;;9.48;1.40;;;;;;;14.87;59.53;151390.63;1780142;79;21080;-68
2022/10/10 08:28:42;;;;;;;3.50;1.20;;;;;;;14.94;58.83;151406.28;1775291;79;21127;-68
2022/10/10 08:31:14;;;;;;;5.35;1.20;;;;;;;15.00;58.79;151421.88;1773241;79;21040;-68
2022/10/10 08:33:41;;;;;;;5.47;0.98;;;;;;;15.08;58.83;151442.69;1774234;79;21020;-67
2022/10/10 08:36:14;;;;;;;6.85;1.00;;;;;;;15.14;57.15;151458.34;1764265;79;21124;-68
2022/10/10 08:38:41;;;;;;;7.65;1.10;;;;;;;15.11;57.32;151450.50;1768040;79;21046;-68
2022/10/10 08:41:31;;;;;;;4.40;1.30;;;;;;;15.15;57.41;151460.95;1771511;79;21110;-68
2022/10/10 08:44:05;;;;;;;7.10;0.90;;;;;;;15.26;57.41;151486.97;1773366;80;21078;-68
2022/10/10 08:46:51;;;;;;;3.50;1.00;;;;;;;15.34;56.76;151507.78;1769496;79;21549;-68
2022/10/10 08:49:45;;;;;;;4.92;1.30;;;;;;;15.35;57.34;151509.11;1773195;79;21109;-68
2022/10/10 08:52:33;;;;;;;4.80;0.95;;;;;;;15.44;56.65;151533.84;1762310;79;21099;-68
2022/10/10 08:55:06;;;;;;;3.37;0.80;;;;;;;15.51;55.64;151549.47;1767902;79;21288;-67
2022/10/10 08:57:54;;;;;;;7.08;1.10;;;;;;;15.51;55.20;151549.47;1775394;79;21071;-67
2022/10/10 09:00:23;;;;;;;6.58;1.12;;;;;;;15.46;55.00;151539.06;1772834;79;21022;-74
2022/10/10 09:02:57;;;;;;;3.95;0.90;;;;;;;15.52;54.80;151552.06;1770512;80;21057;-75
2022/10/10 09:05:54;;;;;;;3.10;0.80;;;;;;;15.56;54.49;151563.80;1771090;79;21587;-75
2022/10/10 09:08:32;;;;;;;6.00;1.07;;;;;;;15.56;54.34;151562.47;1776462;79;21554;-74
2022/10/10 09:11:19;;;;;;;4.28;1.15;;;;;;;15.60;54.66;151574.22;1768596;79;21116;-76
2022/10/10 09:14:18;;;;;;;4.50;0.80;;;;;;;15.67;54.72;151591.14;1770817;79;21440;-70
2022/10/10 09:17:24;;;;;;;3.83;1.00;;;;;;;15.73;53.90;151606.77;1764372;79;21443;-69
2022/10/10 09:20:15;;;;;;;4.20;0.80;;;;;;;15.75;53.26;151611.97;1776222;79;21066;-70
2022/10/10 09:23:14;;;;;;;6.47;1.15;;;;;;;15.79;53.61;151621.09;1771509;79;21410;-71
2022/10/10 09:25:56;;;;;;;3.00;0.90;;;;;;;15.84;53.88;151632.84;1778429;79;21050;-69
2022/10/10 09:28:39;;;;;;;5.72;0.85;;;;;;;15.87;53.17;151640.64;1769634;80;21060;-69
2022/10/10 09:31:11;;;;;;;8.28;1.00;;;;;;;15.88;52.37;151643.25;1700048;80;21054;-70
2022/10/10 09:34:01;;;;;;;5.80;1.32;;;;;;;15.85;53.11;151635.44;1755518;80;21239;-69
2022/10/10 09:36:35;;;;;;;3.22;1.02;;;;;;;15.86;53.22;151638.05;1783724;80;21831;-69
2022/10/10 09:39:22;;;;;;;9.63;0.90;;;;;;;15.85;52.93;151636.72;1763285;80;21078;-69
2022/10/10 09:42:17;;;;;;;2.62;0.95;;;;;;;15.80;52.42;151622.38;1737799;80;20979;-70
2022/10/10 09:44:43;;;;;;;1.90;1.17;;;;;;;15.74;51.31;151609.36;1742713;80;21074;-70
2022/10/10 09:47:14;;;;;;;8.33;0.95;;;;;;;15.79;51.62;151619.78;1743126;80;21502;-70
2022/10/10 09:49:42;;;;;;;6.85;1.20;;;;;;;15.84;51.56;151634.11;1745698;80;21901;-70
2022/10/10 09:52:25;;;;;;;1.75;0.90;;;;;;;15.91;51.95;151651.11;1735642;82;21111;-70
2022/10/10 09:55:01;;;;;;;2.85;0.95;;;;;;;16.01;50.54;151677.13;1738780;82;21486;-70
2022/10/10 09:57:33;;;;;;;5.37;0.82;;;;;;;16.03;50.86;151682.39;1742179;80;21099;-71
2022/10/10 10:00:00;;;;;;;5.53;0.82;;;;;;;16.07;49.42;151690.19;1716747;82;21023;-69
2022/10/10 10:02:27;;;;;;;3.30;0.90;;;;;;;16.11;49.15;151701.89;1656328;83;21191;-70
2022/10/10 10:04:54;;;;;;;5.22;0.80;;;;;;;16.16;48.62;151714.95;1687864;84;21156;-70
2022/10/10 10:07:33;;;;;;;4.65;0.93;;;;;;;16.23;47.82;151731.84;1694561;84;22231;-64
2022/10/10 10:10:19;;;;;;;1.15;0.60;;;;;;;16.25;47.66;151735.78;1686559;83;21700;-69
2022/10/10 10:12:47;;;;;;;3.77;0.93;;;;;;;16.22;48.24;151729.25;1679013;83;21079;-70
2022/10/10 10:15:23;;;;;;;7.28;0.98;;;;;;;16.25;48.86;151737.11;1709190;83;21512;-70
2022/10/10 10:18:20;;;;;;;8.13;1.00;;;;;;;16.35;48.55;151761.81;1699842;82;21041;-69
2022/10/10 10:20:50;;;;;;;;;;;;;;;16.40;48.25;151773.55;1714754;82;21041;-69
2022/10/10 10:23:45;;;;;;;1.30;0.80;;;;;;;16.40;47.73;151773.55;1687463;83;20144;-69
2022/10/10 10:26:32;;;;;;;5.30;0.88;;;;;;;16.29;48.41;151747.52;1697795;82;21134;-70
2022/10/10 10:29:29;;;;;;;5.08;0.90;;;;;;;16.21;49.21;151725.37;1684691;83;20945;-70
2022/10/10 10:32:22;;;;;;;2.33;0.90;;;;;;;16.18;49.53;151718.84;1687208;84;21461;-69
2022/10/10 10:35:15;;;;;;;1.60;0.78;;;;;;;16.18;48.24;151718.84;1675751;83;21143;-69
2022/10/10 10:38:05;;;;;;;5.78;1.15;;;;;;;16.26;47.85;151738.37;1713033;82;21021;-68
2022/10/10 10:40:51;;;;;;;2.40;0.80;;;;;;;16.31;48.01;151751.41;1689014;82;21047;-69
2022/10/10 10:43:48;;;;;;;9.05;0.85;;;;;;;16.37;47.14;151765.75;1712197;82;21096;-70
2022/10/10 10:46:41;;;;;;;8.45;1.02;;;;;;;16.40;46.16;151774.88;1713403;82;21068;-69
2022/10/10 10:49:20;;;;;;;4.53;0.62;;;;;;;16.45;46.05;151786.56;1706853;82;21051;-69
2022/10/10 10:52:02;;;;;;;5.40;0.98;;;;;;;16.46;46.12;151789.19;1710993;83;21059;-69
2022/10/10 10:55:00;;;;;;;0.82;0.60;;;;;;;16.46;46.19;151789.19;1706755;83;21087;-69
2022/10/10 10:57:59;;;;;;;4.42;0.72;;;;;;;16.51;45.58;151802.25;1695401;82;21203;-68
2022/10/10 11:00:26;;;;;;;6.78;0.78;;;;;;;16.53;45.39;151807.45;1730131;82;21067;-69
2022/10/10 11:03:28;;;;;;;5.55;1.02;;;;;;;16.57;44.91;151817.88;1720342;81;21008;-68
2022/10/10 11:06:06;;;;;;;2.58;0.60;;;;;;;16.63;45.40;151832.22;1681617;83;20968;-69
2022/10/10 11:09:11;;;;;;;3.40;0.57;;;;;;;16.70;44.84;151849.17;1718328;81;21504;-69
2022/10/10 11:12:00;;;;;;;2.40;0.60;;;;;;;16.75;44.27;151862.19;1712635;82;21238;-69
2022/10/10 11:14:59;;;;;;;11.50;0.90;;;;;;;16.74;43.92;151859.58;1720435;81;21095;-69
2022/10/10 11:17:40;;;;;;;3.45;0.70;;;;;;;16.68;43.80;151843.91;1731410;81;21663;-69
2022/10/10 11:20:33;;;;;;;4.17;1.12;;;;;;;16.65;43.74;151836.09;1730546;82;21028;-70
2022/10/10 11:23:30;;;;;;;2.92;0.80;;;;;;;16.61;44.15;151828.28;1675491;83;21594;-69
2022/10/10 11:26:06;;;;;;;5.78;1.05;;;;;;;16.64;44.39;151833.50;1717531;83;21493;-63
2022/10/10 11:28:42;;;;;;;3.50;0.80;;;;;;;16.63;44.40;151832.22;1716365;81;21059;-63
2022/10/10 11:31:26;;;;;;;2.20;0.80;;;;;;;16.60;44.31;151825.69;1724965;83;21047;-64
2022/10/10 11:34:00;;;;;;;4.60;0.77;;;;;;;16.59;44.43;151821.80;1695582;82;20988;-63
2022/10/10 11:36:29;;;;;;;4.50;0.93;;;;;;;16.53;44.05;151806.13;1721035;81;21060;-63
2022/10/10 11:39:11;;;;;;;1.60;0.78;;;;;;;16.49;43.67;151797.03;1718285;81;22044;-62
2022/10/10 11:42:01;;;;;;;3.30;1.00;;;;;;;16.48;43.79;151794.44;1720564;83;21083;-63
2022/10/10 11:44:53;;;;;;;3.50;0.80;;;;;;;16.51;43.99;151802.25;1721091;83;21113;-63
2022/10/10 11:47:36;;;;;;;3.12;0.65;;;;;;;16.54;43.94;151810.06;1718044;83;21057;-64
2022/10/10 11:50:21;;;;;;;4.42;0.65;;;;;;;16.54;43.90;151810.06;1746981;81;21628;-63
2022/10/10 11:53:15;;;;;;;4.95;0.90;;;;;;;16.51;43.54;151800.92;1743809;81;21247;-64